Arichat, Canada
Current Conditions -  °F | °C
As of 6:22 AM on Thursday 29 Jan 2015 (Local Time) from CYPD Reporting Station
Light Snow Light Snow  
Wind Chill:   Ceiling: 1500
Heat Index: 21°   Visibility: 9mi
Dew Point: 18°   Wind: 14mph
Humidity: 86%   Direction: 320°NW
Pressure: 30.05"   Gusts: 22mph
Location:  45.52°N, 61.02°W
Report Text: CYPD 291022Z AUTO 32012G19KT 9SM -SN OVC015 M06/M08 A3005 RMK PRESRR SLP182
Loading
Personal Weather Stations






























Interactive Weather Map New forecast layout! Learn more

10-Day Weather Forecast

Advertisements
Track Severe Weather on mobile